Time;durP1;ratioP1;P1;durP2;ratioP2;P2;SDS_P1;SDS_P2;PMS_P1;PMS_P2;Temp;Humidity;BMP_temperature;BMP_pressure;BME280_temperature;BME280_humidity;BME280_pressure;Samples;Min_cycle;Max_cycle;Signal;HPM_P1;HPM_P2
2022/12/25 00:00:42;;;;;;;9.47;7.30;;;;;;;9.05;100.00;101825.72;2105493;28;20435;-64
2022/12/25 00:01:43;;;;;;;9.30;7.00;;;;;;;9.47;100.00;101891.34;2099702;28;20243;-63
2022/12/25 00:02:43;;;;;;;12.37;7.60;;;;;;;9.41;100.00;101885.44;2098003;28;20285;-63
2022/12/25 00:03:44;;;;;;;9.80;7.37;;;;;;;9.45;100.00;101896.50;2105550;28;20182;-63
2022/12/25 00:04:44;;;;;;;9.97;6.93;;;;;;;9.33;100.00;101881.06;2112672;28;20183;-64
2022/12/25 00:05:44;;;;;;;9.10;7.33;;;;;;;9.24;100.00;101863.28;2106747;28;20740;-63
2022/12/25 00:06:45;;;;;;;9.33;7.10;;;;;;;9.47;100.00;101900.44;2106671;28;20179;-64
2022/12/25 00:07:45;;;;;;;9.40;7.53;;;;;;;9.45;100.00;101902.03;2098511;28;20218;-63
2022/12/25 00:08:46;;;;;;;8.93;7.33;;;;;;;9.47;100.00;101903.22;2112958;28;20249;-63
2022/12/25 00:09:46;;;;;;;8.63;7.43;;;;;;;9.48;100.00;101899.25;2108909;28;20200;-64
2022/12/25 00:10:56;;;;;;;8.97;6.90;;;;;;;9.52;100.00;101905.59;2101905;28;20218;-63
2022/12/25 00:11:56;;;;;;;9.70;7.63;;;;;;;9.54;100.00;101899.69;2097880;28;20625;-64
2022/12/25 00:12:56;;;;;;;8.47;6.90;;;;;;;9.55;100.00;101899.28;2101810;28;20188;-63
2022/12/25 00:13:57;;;;;;;9.63;7.57;;;;;;;9.45;100.00;101896.50;2103994;28;20188;-64
2022/12/25 00:14:57;;;;;;;10.80;7.50;;;;;;;9.53;100.00;101904.41;2099787;28;20178;-64
2022/12/25 00:15:58;;;;;;;9.60;7.67;;;;;;;9.54;100.00;101905.97;2106524;28;20182;-64
2022/12/25 00:16:59;;;;;;;9.33;7.23;;;;;;;9.56;100.00;101900.06;2107023;28;20599;-63
2022/12/25 00:17:59;;;;;;;10.17;7.40;;;;;;;9.55;100.00;101913.13;2099065;28;20903;-64
2022/12/25 00:19:00;;;;;;;9.60;7.23;;;;;;;9.55;100.00;101904.00;2098308;28;20642;-63
2022/12/25 00:20:00;;;;;;;9.23;6.90;;;;;;;9.55;100.00;101918.66;2103297;28;20243;-64
2022/12/25 00:21:03;;;;;;;9.80;7.23;;;;;;;9.58;100.00;101919.84;2106811;28;20192;-64
2022/12/25 00:22:04;;;;;;;9.47;6.93;;;;;;;9.59;100.00;101919.44;2102852;28;20188;-64
2022/12/25 00:23:04;;;;;;;9.77;7.50;;;;;;;9.62;100.00;101918.66;2097931;28;20478;-64
2022/12/25 00:24:05;;;;;;;11.87;7.63;;;;;;;9.61;100.00;101921.81;2098819;28;20291;-64
2022/12/25 00:25:06;;;;;;;10.43;7.70;;;;;;;9.63;100.00;101927.75;2106851;28;20237;-63
2022/12/25 00:26:09;;;;;;;10.43;7.20;;;;;;;9.65;100.00;101917.88;2106399;28;20706;-64
2022/12/25 00:27:10;;;;;;;9.45;7.40;;;;;;;9.64;100.00;101924.56;2106652;28;20206;-63
2022/12/25 00:28:10;;;;;;;9.93;7.73;;;;;;;9.64;100.00;101924.56;2100382;28;20207;-64
2022/12/25 00:29:12;;;;;;;9.07;7.77;;;;;;;9.63;100.00;101938.81;2098364;28;20190;-64
2022/12/25 00:30:13;;;;;;;9.87;7.17;;;;;;;9.65;100.00;101933.69;2098131;28;20566;-63
2022/12/25 00:31:16;;;;;;;11.30;7.00;;;;;;;9.66;100.00;101936.06;2106317;28;20432;-64
2022/12/25 00:32:16;;;;;;;9.83;7.70;;;;;;;9.70;100.00;101936.06;2104586;28;20640;-63
2022/12/25 00:33:17;;;;;;;9.83;7.87;;;;;;;9.72;100.00;101941.97;2097877;28;20418;-63
2022/12/25 00:34:17;;;;;;;8.87;7.60;;;;;;;9.69;100.00;101942.78;2098392;28;20179;-63
2022/12/25 00:35:18;;;;;;;9.87;7.80;;;;;;;9.59;100.00;101926.97;2098165;28;20276;-63
2022/12/25 00:36:20;;;;;;;10.30;7.93;;;;;;;9.68;100.00;101955.03;2102545;28;20653;-63
2022/12/25 00:37:21;;;;;;;10.10;7.00;;;;;;;9.66;100.00;101943.56;2106287;28;20191;-64
2022/12/25 00:38:21;;;;;;;9.33;7.50;;;;;;;9.66;100.00;101941.59;2105993;28;20468;-63
2022/12/25 00:39:22;;;;;;;11.33;7.80;;;;;;;9.29;100.00;101880.28;2103351;28;20241;-64
2022/12/25 00:40:22;;;;;;;11.27;7.53;;;;;;;9.63;100.00;101941.59;2097975;28;20613;-64
2022/12/25 00:42:42;;;;;;;8.97;7.00;;;;;;;9.67;100.00;101945.94;2097555;28;20258;-63
2022/12/25 00:43:42;;;;;;;10.93;7.40;;;;;;;9.66;100.00;101940.78;2097997;28;20924;-64
2022/12/25 00:44:43;;;;;;;9.23;7.13;;;;;;;9.67;100.00;101936.84;2097978;28;20214;-63
2022/12/25 00:45:52;;;;;;;10.87;7.50;;;;;;;9.63;100.00;101950.66;2098246;28;20176;-64
2022/12/25 00:46:52;;;;;;;11.97;7.87;;;;;;;9.62;100.00;101946.31;2098381;28;20160;-63
2022/12/25 00:47:52;;;;;;;10.97;7.47;;;;;;;9.64;100.00;101948.72;2097947;28;20468;-63
2022/12/25 00:48:53;;;;;;;9.53;7.43;;;;;;;9.54;100.00;101930.88;2104226;28;20193;-63
2022/12/25 00:49:54;;;;;;;10.80;7.70;;;;;;;9.62;100.00;101948.28;2106300;28;20215;-63
2022/12/25 00:50:55;;;;;;;9.30;7.83;;;;;;;9.60;100.00;101947.91;2102754;28;20336;-64
2022/12/25 00:51:56;;;;;;;9.43;7.47;;;;;;;9.55;100.00;101943.56;2096661;28;20191;-64
2022/12/25 00:52:56;;;;;;;8.90;7.57;;;;;;;9.51;100.00;101947.50;2098694;28;20425;-63
2022/12/25 00:53:57;;;;;;;10.47;7.90;;;;;;;9.56;100.00;101947.09;2106181;28;20201;-64
2022/12/25 00:54:57;;;;;;;13.63;8.60;;;;;;;9.55;100.00;101946.34;2106630;28;20640;-63
2022/12/25 00:56:01;;;;;;;10.73;7.70;;;;;;;9.54;100.00;101953.03;2098682;28;20190;-63
2022/12/25 00:57:01;;;;;;;10.93;7.90;;;;;;;9.47;100.00;101953.03;2098187;28;20196;-63
2022/12/25 00:58:02;;;;;;;11.70;8.53;;;;;;;9.47;100.00;101953.03;2103617;28;20447;-63
2022/12/25 00:59:02;;;;;;;10.03;8.00;;;;;;;9.47;100.00;101950.25;2101882;28;20284;-63
2022/12/25 01:00:04;;;;;;;9.93;8.30;;;;;;;9.42;100.00;101939.56;2101097;28;20194;-64
2022/12/25 01:01:04;;;;;;;10.93;8.07;;;;;;;9.50;100.00;101946.72;2106381;28;20211;-63
2022/12/25 01:02:23;;;;;;;11.00;8.10;;;;;;;9.49;100.00;101949.88;2105814;28;20424;-63
2022/12/25 01:03:24;;;;;;;10.63;8.03;;;;;;;9.44;100.00;101947.50;2108413;28;20171;-63
2022/12/25 01:04:24;;;;;;;11.23;8.13;;;;;;;9.39;100.00;101950.66;2113167;28;20933;-64
2022/12/25 01:05:25;;;;;;;10.27;7.90;;;;;;;9.12;100.00;101905.16;2106205;28;20799;-63
2022/12/25 01:06:26;;;;;;;10.70;8.60;;;;;;;9.35;100.00;101952.59;2106342;28;20175;-64
2022/12/25 01:07:26;;;;;;;11.17;8.67;;;;;;;9.26;100.00;101936.38;2106412;28;20218;-64
2022/12/25 01:08:30;;;;;;;10.67;8.13;;;;;;;9.32;100.00;101951.41;2106179;28;20194;-63
2022/12/25 01:10:57;;;;;;;11.67;8.27;;;;;;;9.13;100.00;101926.09;2098149;28;20417;-64
2022/12/25 01:11:57;;;;;;;10.53;8.60;;;;;;;9.29;100.00;101956.94;2097385;28;20477;-64
2022/12/25 01:12:57;;;;;;;10.57;8.50;;;;;;;9.29;100.00;101956.94;2103202;28;20437;-63
2022/12/25 01:13:58;;;;;;;10.60;8.70;;;;;;;9.29;100.00;101960.50;2106092;28;20251;-63
2022/12/25 01:14:59;;;;;;;10.50;8.70;;;;;;;9.24;100.00;101957.31;2102962;28;20216;-64
2022/12/25 01:16:08;;;;;;;11.07;8.30;;;;;;;9.09;100.00;101937.13;2099744;28;20179;-63
2022/12/25 01:17:08;;;;;;;11.13;8.23;;;;;;;9.21;100.00;101958.09;2104329;28;20171;-63
2022/12/25 01:18:09;;;;;;;10.90;8.90;;;;;;;9.20;100.00;101953.75;2097668;28;20434;-64
2022/12/25 01:19:10;;;;;;;11.13;8.67;;;;;;;9.11;100.00;101948.59;2098127;28;20171;-64
2022/12/25 01:20:12;;;;;;;11.03;8.20;;;;;;;9.20;100.00;101954.56;2097697;28;20217;-64
2022/12/25 01:21:15;;;;;;;9.67;8.23;;;;;;;9.19;100.00;101964.03;2097686;28;20288;-64
2022/12/25 01:22:15;;;;;;;9.67;8.30;;;;;;;9.10;100.00;101957.28;2097461;28;20501;-63
2022/12/25 01:23:16;;;;;;;11.20;8.10;;;;;;;8.53;100.00;101872.56;2097418;28;20453;-63
2022/12/25 01:24:16;;;;;;;12.23;8.33;;;;;;;9.10;100.00;101965.56;2097646;28;20176;-63
2022/12/25 01:25:17;;;;;;;9.97;7.37;;;;;;;8.92;100.00;101931.56;2097859;28;20191;-64
2022/12/25 01:26:20;;;;;;;8.97;7.60;;;;;;;9.04;100.00;101954.13;2097665;28;20186;-64
2022/12/25 01:27:20;;;;;;;9.30;7.90;;;;;;;8.78;100.00;101917.66;2097640;28;20208;-63
2022/12/25 01:28:20;;;;;;;10.83;8.40;;;;;;;8.84;100.00;101939.03;2097780;28;20414;-64
2022/12/25 01:29:21;;;;;;;9.97;7.73;;;;;;;8.92;100.00;101951.69;2097828;28;20187;-63
2022/12/25 01:30:21;;;;;;;10.63;7.77;;;;;;;8.90;100.00;101944.94;2097595;28;20242;-63
2022/12/25 01:31:23;;;;;;;12.33;8.80;;;;;;;8.81;100.00;101945.31;2097552;28;20186;-64
2022/12/25 01:32:24;;;;;;;11.10;8.57;;;;;;;8.77;100.00;101938.19;2097436;28;20253;-63
2022/12/25 01:33:24;;;;;;;10.73;8.47;;;;;;;8.50;100.00;101918.31;2097789;28;20426;-64
2022/12/25 01:34:25;;;;;;;13.60;8.40;;;;;;;8.71;100.00;101948.06;2097562;28;20265;-63
2022/12/25 01:35:25;;;;;;;10.20;8.30;;;;;;;8.68;100.00;101949.63;2097650;28;20214;-64
2022/12/25 01:36:26;;;;;;;10.97;8.57;;;;;;;8.64;100.00;101959.06;2097484;28;20191;-64
2022/12/25 01:37:26;;;;;;;13.03;9.13;;;;;;;8.57;100.00;101945.22;2097960;28;20199;-63
2022/12/25 01:38:27;;;;;;;10.70;8.93;;;;;;;8.62;100.00;101959.44;2097700;28;20535;-64
2022/12/25 01:39:27;;;;;;;12.13;9.03;;;;;;;8.59;100.00;101956.66;2102234;28;20191;-64
2022/12/25 01:40:28;;;;;;;12.83;9.13;;;;;;;8.61;100.00;101968.13;2105748;28;20226;-63
2022/12/25 01:41:28;;;;;;;12.50;8.90;;;;;;;8.62;100.00;101964.19;2101123;28;20198;-63
2022/12/25 01:42:29;;;;;;;12.47;8.90;;;;;;;8.64;100.00;101956.28;2097239;28;20171;-64
2022/12/25 01:43:32;;;;;;;12.07;9.53;;;;;;;8.64;100.00;101959.84;2097408;28;20221;-64
2022/12/25 01:44:35;;;;;;;11.03;8.47;;;;;;;8.66;100.00;101962.25;2097654;28;20182;-63
2022/12/25 01:45:43;;;;;;;11.90;8.40;;;;;;;8.63;100.00;101963.00;2097816;28;20904;-63
2022/12/25 01:46:44;;;;;;;12.77;7.90;;;;;;;8.54;100.00;101957.03;2097767;28;20432;-63
2022/12/25 01:47:45;;;;;;;10.43;8.17;;;;;;;8.65;100.00;101960.63;2105739;28;20479;-63
2022/12/25 01:48:45;;;;;;;10.23;8.70;;;;;;;8.66;100.00;101951.19;2098844;28;20442;-63
2022/12/25 01:49:49;;;;;;;10.37;8.07;;;;;;;8.67;100.00;101952.75;2105081;28;20606;-63
2022/12/25 01:50:57;;;;;;;9.87;8.10;;;;;;;8.66;100.00;101949.19;2100856;28;20198;-64
2022/12/25 01:52:11;;;;;;;12.53;8.47;;;;;;;8.68;100.00;101948.81;2097085;28;20786;-63
2022/12/25 01:53:12;;;;;;;10.43;8.13;;;;;;;8.65;100.00;101946.81;2097337;28;20479;-64
2022/12/25 01:54:19;;;;;;;11.20;8.27;;;;;;;8.64;100.00;101931.41;2102024;28;20433;-63
2022/12/25 01:55:19;;;;;;;11.67;7.90;;;;;;;8.08;100.00;101845.47;2101692;28;20674;-64
2022/12/25 01:56:20;;;;;;;8.73;7.30;;;;;;;8.77;100.00;101952.78;2097410;28;20821;-63
2022/12/25 01:57:31;;;;;;;10.57;7.57;;;;;;;8.66;100.00;101929.06;2097691;28;20180;-63
2022/12/25 01:58:32;;;;;;;11.70;7.77;;;;;;;8.77;100.00;101943.72;2097530;28;20213;-63
2022/12/25 01:59:32;;;;;;;10.00;7.60;;;;;;;8.52;100.00;101904.94;2097441;28;20941;-63
2022/12/25 02:00:33;;;;;;;10.87;7.90;;;;;;;8.74;100.00;101939.78;2097709;28;20799;-63
2022/12/25 02:01:34;;;;;;;10.73;7.80;;;;;;;8.74;100.00;101944.50;2097248;28;20191;-64
2022/12/25 02:02:35;;;;;;;10.93;7.90;;;;;;;8.75;100.00;101935.81;2104412;28;20182;-63
2022/12/25 02:03:35;;;;;;;9.77;7.57;;;;;;;8.83;100.00;101940.22;2105739;28;20193;-63
2022/12/25 02:04:41;;;;;;;10.37;7.40;;;;;;;8.86;100.00;101935.88;2100813;28;20927;-63
2022/12/25 02:05:44;;;;;;;10.17;7.87;;;;;;;8.39;100.00;101872.47;2097505;28;20273;-63
2022/12/25 02:06:46;;;;;;;10.83;7.73;;;;;;;8.87;100.00;101945.75;2097736;28;20707;-63
2022/12/25 02:07:48;;;;;;;9.80;7.27;;;;;;;8.83;100.00;101945.75;2097324;28;20511;-64
2022/12/25 02:08:49;;;;;;;11.37;7.50;;;;;;;8.78;100.00;101945.31;2097529;28;20942;-63
2022/12/25 02:09:50;;;;;;;10.87;7.80;;;;;;;8.78;100.00;101945.31;2099131;28;20801;-63
2022/12/25 02:10:50;;;;;;;9.00;7.53;;;;;;;8.80;100.00;101943.75;2106037;28;20193;-63
2022/12/25 02:11:56;;;;;;;11.37;7.70;;;;;;;8.80;100.00;101946.50;2104965;28;20420;-64
2022/12/25 02:12:58;;;;;;;10.90;7.67;;;;;;;8.45;100.00;101879.25;2098012;28;20276;-63
2022/12/25 02:13:58;;;;;;;9.10;6.77;;;;;;;8.20;100.00;101854.25;2097357;28;20431;-63
2022/12/25 02:15:02;;;;;;;10.70;7.37;;;;;;;8.79;100.00;101942.16;2097532;28;20485;-63
2022/12/25 02:16:14;;;;;;;10.00;7.50;;;;;;;8.80;100.00;101956.75;2097386;28;20193;-63
2022/12/25 02:17:35;;;;;;;10.33;7.23;;;;;;;8.82;100.00;101955.19;2097467;28;20449;-63
2022/12/25 02:18:48;;;;;;;9.30;7.07;;;;;;;8.86;100.00;101952.47;2097468;28;20413;-64
2022/12/25 02:20:26;;;;;;;10.27;7.37;;;;;;;8.88;100.00;101961.94;2097482;28;20441;-63
2022/12/25 02:21:44;;;;;;;8.17;6.73;;;;;;;8.51;100.00;101897.81;2096978;28;20422;-63
2022/12/25 02:23:03;;;;;;;9.90;6.97;;;;;;;8.88;100.00;101955.63;2097034;28;20945;-64
2022/12/25 02:24:25;;;;;;;10.57;7.20;;;;;;;8.87;100.00;101954.03;2097041;28;20449;-63
2022/12/25 02:25:53;;;;;;;9.33;7.47;;;;;;;8.88;100.00;101955.63;2097398;28;20412;-63
2022/12/25 02:27:21;;;;;;;10.10;7.20;;;;;;;8.88;100.00;101950.09;2097576;28;20911;-63
2022/12/25 02:28:43;;;;;;;9.97;7.03;;;;;;;8.87;100.00;101954.81;2099221;28;20402;-63
2022/12/25 02:29:58;;;;;;;9.57;7.03;;;;;;;8.74;100.00;101936.19;2101777;28;20502;-63
2022/12/25 02:31:13;;;;;;;10.93;7.37;;;;;;;8.88;100.00;101952.84;2097469;28;20444;-63
2022/12/25 02:32:29;;;;;;;9.27;7.93;;;;;;;8.90;100.00;101950.47;2102477;28;20524;-63
2022/12/25 02:34:04;;;;;;;9.63;7.47;;;;;;;8.88;100.00;101952.84;2099187;28;20833;-64
2022/12/25 02:35:29;;;;;;;10.17;7.33;;;;;;;8.88;100.00;101961.16;2097943;28;20536;-64
2022/12/25 02:36:54;;;;;;;9.00;7.10;;;;;;;8.87;100.00;101949.28;2102868;28;20457;-63
2022/12/25 02:38:07;;;;;;;9.03;7.17;;;;;;;8.84;100.00;101946.50;2097262;28;20402;-64
2022/12/25 02:40:39;;;;;;;11.80;7.73;;;;;;;8.86;100.00;101947.72;2097907;28;20487;-64
2022/12/25 02:41:44;;;;;;;9.30;7.10;;;;;;;8.83;100.00;101947.69;2097645;28;20467;-64
2022/12/25 03:06:44;;;;;;;9.67;7.67;;;;;;;8.72;100.00;101966.22;2098905;28;20420;-63
2022/12/25 03:07:45;;;;;;;10.23;7.80;;;;;;;8.72;100.00;101963.44;2098839;28;20483;-63
2022/12/25 03:08:52;;;;;;;11.37;8.20;;;;;;;8.74;100.00;101980.41;2098831;28;20935;-63
2022/12/25 03:11:30;;;;;;;11.63;7.70;;;;;;;8.80;100.00;101959.53;2106965;28;20417;-63
2022/12/25 03:12:33;;;;;;;10.47;7.90;;;;;;;8.83;100.00;101967.84;2106604;28;20436;-63
2022/12/25 03:13:37;;;;;;;8.80;7.53;;;;;;;8.81;100.00;101967.44;2101991;28;20445;-63
2022/12/25 03:17:15;;;;;;;10.20;8.03;;;;;;;8.81;100.00;101977.72;2099029;28;20445;-63
2022/12/25 03:18:19;;;;;;;9.63;7.70;;;;;;;8.76;100.00;101970.56;2098678;28;20472;-63
2022/12/25 03:27:28;;;;;;;12.00;9.10;;;;;;;8.67;100.00;101995.00;2098896;28;22360;-63
2022/12/25 03:28:28;;;;;;;10.20;8.03;;;;;;;7.77;100.00;101841.34;2098663;28;21023;-64
2022/12/25 03:31:12;;;;;;;11.70;8.43;;;;;;;8.71;100.00;101997.78;2098875;28;20203;-63
2022/12/25 03:32:41;;;;;;;10.23;7.27;;;;;;;8.67;100.00;101995.00;2098154;28;20854;-63
2022/12/25 03:36:06;;;;;;;12.13;8.33;;;;;;;8.65;100.00;101986.31;2100540;28;20460;-64
2022/12/25 04:36:09;;;;;;;8.47;6.23;;;;;;;8.88;100.00;101999.84;2105340;28;20486;-63
2022/12/25 04:37:10;;;;;;;8.50;5.77;;;;;;;8.65;100.00;101977.22;2098224;28;20449;-63
2022/12/25 04:38:10;;;;;;;7.93;6.17;;;;;;;8.90;100.00;101991.94;2098124;28;20425;-63
2022/12/25 04:39:11;;;;;;;8.90;6.47;;;;;;;8.92;100.00;101995.91;2098151;28;20676;-63
2022/12/25 04:40:11;;;;;;;9.13;6.63;;;;;;;8.75;100.00;101966.22;2098218;28;20269;-63
2022/12/25 04:41:13;;;;;;;8.13;6.60;;;;;;;8.91;100.00;102008.16;2098286;28;20198;-63
2022/12/25 04:42:14;;;;;;;9.53;6.60;;;;;;;9.01;100.00;101995.56;2097742;28;20609;-63
2022/12/25 04:43:15;;;;;;;10.13;6.30;;;;;;;9.02;100.00;101994.41;2097847;28;20430;-63
2022/12/25 04:44:15;;;;;;;9.43;6.10;;;;;;;8.53;100.00;101925.06;2101609;28;20965;-63
2022/12/25 04:45:16;;;;;;;9.63;6.30;;;;;;;8.88;100.00;101981.31;2106553;28;20566;-63
2022/12/25 04:46:17;;;;;;;8.37;5.80;;;;;;;9.03;100.00;101993.22;2104162;28;20262;-63
2022/12/25 04:47:17;;;;;;;7.13;5.60;;;;;;;9.02;100.00;101995.16;2098018;28;20201;-63
2022/12/25 04:48:18;;;;;;;9.17;5.63;;;;;;;9.01;100.00;101996.34;2098151;28;20197;-63
2022/12/25 04:49:18;;;;;;;7.60;6.07;;;;;;;9.07;100.00;102000.31;2102827;28;20203;-63
2022/12/25 04:50:18;;;;;;;9.63;6.10;;;;;;;9.03;100.00;101996.75;2106433;28;20193;-63
2022/12/25 04:51:21;;;;;;;8.93;6.03;;;;;;;9.02;100.00;102008.22;2100333;28;20273;-63
2022/12/25 04:52:22;;;;;;;8.97;6.00;;;;;;;9.02;100.00;102002.69;2097977;28;20170;-63
2022/12/25 04:53:23;;;;;;;7.80;5.90;;;;;;;9.02;100.00;102008.22;2097786;28;20446;-63
2022/12/25 04:54:23;;;;;;;8.57;5.50;;;;;;;9.06;100.00;102020.88;2097879;28;20661;-63
2022/12/25 04:55:24;;;;;;;8.63;6.17;;;;;;;9.07;100.00;102007.84;2097961;28;20795;-63
2022/12/25 04:56:24;;;;;;;7.87;6.00;;;;;;;9.11;100.00;102014.16;2097949;28;20179;-63
2022/12/25 04:57:25;;;;;;;8.50;6.03;;;;;;;9.09;100.00;102014.56;2098263;28;20179;-63
2022/12/25 04:58:25;;;;;;;8.90;6.20;;;;;;;9.02;100.00;102020.06;2098053;28;20194;-63
2022/12/25 04:59:26;;;;;;;7.67;5.93;;;;;;;9.06;100.00;102022.84;2098114;28;20652;-63
2022/12/25 05:00:26;;;;;;;8.67;6.67;;;;;;;9.11;100.00;102020.50;2097879;28;20194;-63
2022/12/25 05:01:26;;;;;;;9.70;6.53;;;;;;;9.12;100.00;102019.31;2097628;28;20187;-64
2022/12/25 05:02:27;;;;;;;9.17;6.53;;;;;;;9.15;100.00;102037.09;2097517;28;20203;-63
2022/12/25 05:03:29;;;;;;;10.03;6.20;;;;;;;9.13;100.00;102029.19;2099373;28;20178;-63
2022/12/25 05:04:29;;;;;;;9.27;6.53;;;;;;;8.99;100.00;102006.22;2105693;28;20180;-63
2022/12/25 05:05:30;;;;;;;8.57;6.47;;;;;;;8.49;100.00;101954.63;2098126;28;20484;-63
2022/12/25 05:06:30;;;;;;;6.67;5.80;;;;;;;9.01;100.00;102029.53;2098062;28;20203;-63
2022/12/25 05:07:31;;;;;;;8.10;6.23;;;;;;;9.02;100.00;102031.13;2097954;28;20214;-63
2022/12/25 05:08:33;;;;;;;7.60;6.33;;;;;;;8.96;100.00;102031.91;2097930;28;20189;-63
2022/12/25 05:09:34;;;;;;;9.13;6.50;;;;;;;9.00;100.00;102025.19;2098790;28;20438;-63
2022/12/25 05:10:34;;;;;;;8.63;5.90;;;;;;;9.05;100.00;102026.78;2106421;28;20464;-63
2022/12/25 05:11:35;;;;;;;9.43;6.60;;;;;;;9.01;100.00;102042.56;2105760;28;20198;-63
2022/12/25 05:12:35;;;;;;;7.97;6.23;;;;;;;9.02;100.00;102033.88;2104778;28;20183;-63
2022/12/25 05:13:36;;;;;;;8.87;6.20;;;;;;;8.57;100.00;101973.63;2098195;28;20318;-64
2022/12/25 05:14:38;;;;;;;9.03;6.27;;;;;;;9.06;100.00;102033.88;2098064;28;20195;-63
2022/12/25 05:15:39;;;;;;;8.68;6.30;;;;;;;9.04;100.00;102022.44;2105067;28;20454;-63
2022/12/25 05:16:40;;;;;;;9.43;6.70;;;;;;;9.04;100.00;102036.25;2112682;28;20214;-63
2022/12/25 05:17:40;;;;;;;7.77;5.97;;;;;;;9.00;100.00;102033.50;2104465;28;20440;-63
2022/12/25 05:18:41;;;;;;;9.10;6.47;;;;;;;9.00;100.00;102044.56;2105745;28;20184;-63
2022/12/25 05:19:42;;;;;;;8.90;6.33;;;;;;;8.53;100.00;101970.06;2109073;28;20202;-63
2022/12/25 05:20:42;;;;;;;8.30;6.03;;;;;;;9.07;100.00;102044.56;2100973;28;20201;-63
2022/12/25 05:21:43;;;;;;;7.87;6.40;;;;;;;9.03;100.00;102043.75;2113475;28;20183;-63
2022/12/25 05:22:43;;;;;;;9.53;6.20;;;;;;;9.09;100.00;102053.28;2097516;28;20285;-63
2022/12/25 05:23:47;;;;;;;7.10;5.77;;;;;;;9.03;100.00;102043.75;2105286;28;20646;-63
2022/12/25 05:24:47;;;;;;;11.18;6.32;;;;;;;9.07;100.00;102041.03;2106138;28;20192;-63
2022/12/25 05:25:48;;;;;;;8.50;6.17;;;;;;;9.06;100.00;102045.75;2100415;28;20451;-63
2022/12/25 05:26:48;;;;;;;9.00;6.33;;;;;;;8.96;100.00;102031.91;2102533;28;20195;-63
2022/12/25 05:27:49;;;;;;;8.17;5.90;;;;;;;9.13;100.00;102045.00;2102759;28;20248;-63
2022/12/25 05:28:49;;;;;;;9.33;6.20;;;;;;;8.83;100.00;101997.47;2099977;28;20174;-63
2022/12/25 05:29:50;;;;;;;7.83;6.47;;;;;;;9.10;100.00;102048.53;2104788;28;20702;-64
2022/12/25 05:30:50;;;;;;;7.33;5.87;;;;;;;9.09;100.00;102047.75;2098022;28;20196;-63
2022/12/25 05:31:51;;;;;;;8.97;6.30;;;;;;;9.07;100.00;102047.34;2105513;28;20550;-63
2022/12/25 05:32:51;;;;;;;8.87;7.07;;;;;;;8.95;100.00;102033.84;2098815;28;20271;-63
2022/12/25 05:33:53;;;;;;;8.88;6.40;;;;;;;8.70;100.00;101994.22;2103723;28;20221;-63
2022/12/25 05:34:53;;;;;;;8.33;6.17;;;;;;;9.05;100.00;102052.47;2101323;28;20283;-63
2022/12/25 05:35:54;;;;;;;8.67;6.43;;;;;;;9.09;100.00;102058.81;2101209;28;20508;-63
2022/12/25 05:36:55;;;;;;;10.10;6.67;;;;;;;9.03;100.00;102056.81;2102848;28;20188;-63
2022/12/25 05:37:56;;;;;;;10.43;6.32;;;;;;;9.01;100.00;102056.38;2098427;28;20171;-63
2022/12/25 05:38:56;;;;;;;9.23;6.00;;;;;;;9.02;100.00;102055.22;2106043;28;20186;-63
2022/12/25 05:39:58;;;;;;;11.77;5.97;;;;;;;8.99;100.00;102065.09;2106116;28;20196;-63
2022/12/25 05:40:58;;;;;;;8.77;6.43;;;;;;;9.02;100.00;102063.53;2098462;28;20194;-63
2022/12/25 05:41:59;;;;;;;7.67;6.20;;;;;;;9.02;100.00;102067.06;2103725;28;20424;-63
2022/12/25 05:42:59;;;;;;;8.80;6.47;;;;;;;9.05;100.00;102073.78;2100354;28;20567;-63
2022/12/25 05:44:00;;;;;;;9.13;6.40;;;;;;;9.00;100.00;102074.97;2097404;28;20204;-63
2022/12/25 05:45:00;;;;;;;9.90;6.33;;;;;;;9.00;100.00;102076.94;2097844;28;20201;-63
2022/12/25 05:46:05;;;;;;;9.13;6.00;;;;;;;9.07;100.00;102082.50;2102951;28;20633;-63
2022/12/25 05:47:06;;;;;;;8.70;5.90;;;;;;;9.07;100.00;102082.50;2104699;28;20556;-63
2022/12/25 05:48:08;;;;;;;11.13;6.37;;;;;;;8.62;100.00;102017.47;2097270;28;20204;-63
2022/12/25 05:49:09;;;;;;;8.93;6.60;;;;;;;8.81;100.00;102058.66;2101124;28;20188;-63
2022/12/25 05:50:10;;;;;;;8.57;6.63;;;;;;;8.96;100.00;102068.63;2106047;28;20435;-63
2022/12/25 05:51:12;;;;;;;9.83;6.53;;;;;;;9.02;100.00;102085.66;2099235;28;20295;-63
2022/12/25 05:52:13;;;;;;;6.97;6.05;;;;;;;9.00;100.00;102091.56;2097440;28;20194;-63
2022/12/25 05:53:15;;;;;;;7.53;6.07;;;;;;;8.97;100.00;102086.78;2097312;28;20213;-63
2022/12/25 05:54:15;;;;;;;9.60;6.60;;;;;;;9.12;100.00;102095.97;2097503;28;20665;-63
2022/12/25 05:55:16;;;;;;;8.70;6.57;;;;;;;9.10;100.00;102101.88;2097544;28;20791;-63
2022/12/25 05:56:16;;;;;;;8.40;6.50;;;;;;;9.12;100.00;102095.97;2097444;28;20580;-63
2022/12/25 05:57:17;;;;;;;9.73;6.27;;;;;;;9.17;100.00;102096.38;2097480;28;20215;-63
2022/12/25 05:58:17;;;;;;;7.17;6.00;;;;;;;9.12;100.00;102105.03;2097538;28;20180;-63
2022/12/25 05:59:17;;;;;;;6.97;6.27;;;;;;;8.72;100.00;102051.88;2097666;28;20182;-63
2022/12/25 06:00:18;;;;;;;8.47;6.60;;;;;;;9.13;100.00;102112.16;2097461;28;20200;-63
2022/12/25 06:01:22;;;;;;;9.80;7.03;;;;;;;9.14;100.00;102119.31;2097226;28;20267;-63
2022/12/25 06:02:23;;;;;;;9.68;6.93;;;;;;;8.93;100.00;102079.66;2097278;28;20509;-63
2022/12/25 06:03:24;;;;;;;8.50;6.82;;;;;;;9.11;100.00;102114.53;2097308;28;20660;-63
2022/12/25 06:04:25;;;;;;;11.40;6.90;;;;;;;9.13;100.00;102114.16;2097309;28;20558;-63
2022/12/25 06:05:26;;;;;;;8.70;7.05;;;;;;;9.13;100.00;102119.69;2097463;28;20233;-63
2022/12/25 06:06:26;;;;;;;9.03;6.77;;;;;;;9.13;100.00;102119.69;2097556;28;20235;-63
2022/12/25 06:07:27;;;;;;;8.90;6.57;;;;;;;9.12;100.00;102113.34;2097556;28;20198;-64
2022/12/25 06:08:27;;;;;;;10.10;7.10;;;;;;;9.14;100.00;102118.50;2097439;28;20558;-63
2022/12/25 06:09:28;;;;;;;11.20;7.17;;;;;;;9.12;100.00;102112.56;2098070;28;20200;-63
2022/12/25 06:10:28;;;;;;;9.87;7.40;;;;;;;9.14;100.00;102118.50;2105743;28;20667;-63
2022/12/25 06:11:28;;;;;;;8.87;7.43;;;;;;;9.09;100.00;102110.56;2105430;28;20225;-63
2022/12/25 06:12:29;;;;;;;9.57;6.63;;;;;;;9.16;100.00;102118.88;2102832;28;20190;-64
2022/12/25 06:13:30;;;;;;;8.60;6.57;;;;;;;9.18;100.00;102116.56;2097349;28;20634;-63
2022/12/25 06:14:31;;;;;;;8.50;6.80;;;;;;;9.12;100.00;102129.94;2097424;28;20191;-63
2022/12/25 06:15:31;;;;;;;8.87;7.10;;;;;;;9.09;100.00;102130.72;2097505;28;20182;-63
2022/12/25 06:16:32;;;;;;;11.23;7.67;;;;;;;9.07;100.00;102129.53;2097510;28;20275;-63
2022/12/25 06:17:32;;;;;;;7.77;6.97;;;;;;;9.05;100.00;102129.09;2097423;28;20192;-63
2022/12/25 06:18:41;;;;;;;7.90;6.73;;;;;;;8.77;100.00;102096.53;2097394;28;20205;-63
2022/12/25 06:19:41;;;;;;;7.57;6.67;;;;;;;9.15;100.00;102134.72;2102404;28;20275;-63
2022/12/25 06:20:42;;;;;;;9.93;7.30;;;;;;;9.19;100.00;102134.72;2102017;28;20421;-64
2022/12/25 06:21:42;;;;;;;7.87;7.00;;;;;;;9.23;100.00;102146.63;2096978;28;20227;-63
2022/12/25 06:22:43;;;;;;;8.23;7.17;;;;;;;9.19;100.00;102140.25;2096984;28;20581;-63
2022/12/25 06:23:44;;;;;;;9.30;6.67;;;;;;;9.05;100.00;102129.09;2097193;28;20174;-64
2022/12/25 06:24:44;;;;;;;10.40;7.13;;;;;;;9.20;100.00;102139.06;2097517;28;20302;-63
2022/12/25 06:25:44;;;;;;;7.57;6.63;;;;;;;9.23;100.00;102141.84;2097339;28;20215;-63
2022/12/25 06:26:45;;;;;;;10.53;6.77;;;;;;;9.19;100.00;102148.56;2097326;28;20242;-63
2022/12/25 06:27:45;;;;;;;8.60;6.60;;;;;;;9.22;100.00;102147.78;2097230;28;20207;-63
2022/12/25 06:28:46;;;;;;;9.23;6.40;;;;;;;9.24;100.00;102154.53;2100732;28;20196;-63
2022/12/25 06:29:47;;;;;;;7.47;6.10;;;;;;;9.26;100.00;102148.59;2101928;28;20739;-63
2022/12/25 06:30:47;;;;;;;7.97;6.20;;;;;;;8.91;100.00;102096.63;2097381;28;20812;-63
2022/12/25 06:31:48;;;;;;;7.70;5.93;;;;;;;9.25;100.00;102156.09;2097015;28;20214;-63
2022/12/25 06:32:48;;;;;;;7.53;6.03;;;;;;;9.26;100.00;102154.94;2097194;28;20621;-63
2022/12/25 06:33:49;;;;;;;9.07;6.27;;;;;;;9.07;100.00;102141.38;2097329;28;20190;-63